Time;durP1;ratioP1;P1;durP2;ratioP2;P2;SDS_P1;SDS_P2;PMS_P1;PMS_P2;Temp;Humidity;BMP_temperature;BMP_pressure;BME280_temperature;BME280_humidity;BME280_pressure;Samples;Min_cycle;Max_cycle;Signal;HPM_P1;HPM_P2
2023/08/02 00:00:33;;;;;;;3.80;2.90;;;;;;;23.43;85.14;98261.66;5108231;28;20199;-63
2023/08/02 00:03:00;;;;;;;3.00;2.65;;;;;;;23.43;85.09;98251.22;5108117;28;20632;-63
2023/08/02 00:05:28;;;;;;;5.38;2.88;;;;;;;23.46;85.42;98261.22;5108427;28;20201;-63
2023/08/02 00:07:55;;;;;;;3.08;2.63;;;;;;;23.42;84.78;98265.28;5108207;28;20193;-63
2023/08/02 00:10:22;;;;;;;3.30;2.55;;;;;;;23.44;84.32;98258.81;5108173;28;20200;-63
2023/08/02 00:12:51;;;;;;;4.50;2.95;;;;;;;23.46;86.35;98267.22;5108196;28;20237;-63
2023/08/02 00:15:17;;;;;;;3.75;2.83;;;;;;;23.42;87.43;98270.50;5107954;28;20670;-63
2023/08/02 00:17:44;;;;;;;3.55;2.72;;;;;;;23.43;87.78;98267.66;5108179;28;20194;-63
2023/08/02 00:20:12;;;;;;;3.17;2.40;;;;;;;23.39;85.00;98268.31;5108459;28;20589;-63
2023/08/02 00:22:41;;;;;;;5.43;2.50;;;;;;;23.34;84.34;98265.53;5107947;28;20694;-63
2023/08/02 00:25:08;;;;;;;4.38;2.80;;;;;;;23.33;85.18;98271.75;5108074;28;20206;-63
2023/08/02 00:27:35;;;;;;;3.97;3.10;;;;;;;23.34;86.58;98273.38;5107868;28;20742;-63
2023/08/02 00:30:02;;;;;;;3.80;2.72;;;;;;;23.24;85.93;98279.88;5107617;28;20190;-63
2023/08/02 00:32:29;;;;;;;3.15;2.80;;;;;;;23.21;85.34;98280.28;5107823;28;20615;-63
2023/08/02 00:34:55;;;;;;;4.82;2.97;;;;;;;23.14;86.04;98282.13;5107504;28;20217;-63
2023/08/02 00:37:23;;;;;;;4.07;2.92;;;;;;;23.14;86.23;98274.31;5107621;28;20209;-63
2023/08/02 00:39:52;;;;;;;3.45;2.70;;;;;;;23.12;87.01;98276.31;5107803;28;20213;-63
2023/08/02 00:42:20;;;;;;;3.47;2.55;;;;;;;23.12;88.58;98276.31;5107854;28;20201;-63
2023/08/02 00:44:47;;;;;;;4.13;2.80;;;;;;;23.09;89.67;98275.94;5107570;28;20234;-63
2023/08/02 00:47:14;;;;;;;3.50;2.70;;;;;;;23.01;89.60;98269.19;5107678;28;20202;-63
2023/08/02 00:49:41;;;;;;;3.10;2.40;;;;;;;22.92;89.65;98275.63;5107957;28;20254;-63
2023/08/02 00:52:08;;;;;;;4.18;2.90;;;;;;;22.91;90.18;98268.81;5107694;28;20370;-63
2023/08/02 00:54:35;;;;;;;3.25;2.60;;;;;;;22.81;90.88;98269.28;5107746;28;20240;-63
2023/08/02 00:57:04;;;;;;;4.15;2.65;;;;;;;22.80;90.71;98273.69;5107456;28;20202;-64
2023/08/02 00:59:31;;;;;;;3.80;2.90;;;;;;;22.75;91.47;98270.94;5111139;28;20197;-63
2023/08/02 01:01:58;;;;;;;4.15;3.22;;;;;;;22.67;91.79;98272.97;5111365;28;20654;-64
2023/08/02 01:04:25;;;;;;;3.28;2.63;;;;;;;22.65;91.73;98274.97;5111019;28;20229;-63
2023/08/02 01:06:57;;;;;;;4.28;2.78;;;;;;;22.57;91.51;98273.41;5111042;28;20224;-63
2023/08/02 01:09:30;;;;;;;5.07;2.60;;;;;;;22.47;92.16;98273.88;5111158;28;20690;-63
2023/08/02 01:12:03;;;;;;;4.18;2.75;;;;;;;22.42;93.28;98275.50;5111048;28;20198;-63
2023/08/02 01:14:34;;;;;;;3.78;2.50;;;;;;;22.34;93.99;98269.53;5110938;27;20209;-63
2023/08/02 01:17:02;;;;;;;4.85;3.00;;;;;;;22.28;93.90;98272.13;5110766;28;20459;-63
2023/08/02 01:19:28;;;;;;;3.80;2.63;;;;;;;22.21;94.13;98268.75;5110952;28;20692;-63
2023/08/02 01:21:57;;;;;;;4.30;2.88;;;;;;;22.19;94.96;98266.34;5110708;28;20204;-63
2023/08/02 01:24:29;;;;;;;4.22;3.08;;;;;;;22.17;95.88;98270.97;5110977;28;20229;-64
2023/08/02 01:26:57;;;;;;;3.92;3.33;;;;;;;22.14;95.71;98274.75;5110807;27;20185;-63
2023/08/02 01:29:26;;;;;;;4.35;3.10;;;;;;;22.09;95.82;98274.56;5110660;28;20201;-63
2023/08/02 01:31:55;;;;;;;4.32;2.90;;;;;;;22.12;96.57;98268.94;5110698;28;20681;-63
2023/08/02 01:34:23;;;;;;;4.30;2.95;;;;;;;22.13;97.51;98262.72;5110557;28;20208;-63
2023/08/02 01:36:50;;;;;;;3.80;2.92;;;;;;;22.10;97.91;98257.94;5110308;28;20644;-63
2023/08/02 01:39:18;;;;;;;4.35;3.03;;;;;;;22.10;98.18;98257.13;5110384;28;20470;-63
2023/08/02 01:41:45;;;;;;;3.63;2.80;;;;;;;21.99;98.18;98255.16;5109361;28;20213;-63
2023/08/02 01:44:12;;;;;;;4.20;2.97;;;;;;;21.99;98.36;98260.38;5110071;28;20228;-63
2023/08/02 01:46:38;;;;;;;3.80;2.75;;;;;;;21.96;98.82;98256.38;5110620;28;20212;-63
2023/08/02 01:49:05;;;;;;;3.88;2.63;;;;;;;21.99;98.89;98255.16;5110188;28;20197;-63
2023/08/02 01:51:32;;;;;;;3.60;3.00;;;;;;;22.04;99.32;98257.97;5110484;28;20202;-63
2023/08/02 01:53:59;;;;;;;3.70;2.90;;;;;;;22.06;99.88;98258.56;5110062;28;20280;-63
2023/08/02 01:56:27;;;;;;;3.78;2.88;;;;;;;22.03;100.00;98254.56;5110071;28;20666;-63
2023/08/02 01:58:54;;;;;;;3.03;2.60;;;;;;;22.06;100.00;98251.56;5110202;28;20201;-63
2023/08/02 02:01:21;;;;;;;3.50;3.00;;;;;;;22.03;100.00;98261.59;5110328;28;20582;-63
2023/08/02 02:03:48;;;;;;;2.85;2.47;;;;;;;21.96;100.00;98256.38;5109922;28;20233;-64
2023/08/02 02:06:15;;;;;;;4.30;2.77;;;;;;;21.93;100.00;98257.59;5110311;28;20204;-63
2023/08/02 02:08:41;;;;;;;5.55;2.80;;;;;;;21.97;100.00;98258.00;5109888;28;20202;-63
2023/08/02 02:11:08;;;;;;;4.93;3.08;;;;;;;21.99;100.00;98260.38;5109847;28;20206;-63
2023/08/02 02:13:37;;;;;;;4.07;2.70;;;;;;;21.92;100.00;98261.19;5109789;28;20673;-63
2023/08/02 02:16:04;;;;;;;5.43;3.17;;;;;;;21.93;100.00;98255.00;5109659;28;20213;-64
2023/08/02 02:18:30;;;;;;;3.87;2.83;;;;;;;21.97;100.00;98262.41;5109600;28;20539;-63
2023/08/02 02:20:57;;;;;;;4.50;2.85;;;;;;;21.98;100.00;98258.78;5109698;28;20205;-63
2023/08/02 02:23:24;;;;;;;5.45;2.88;;;;;;;21.86;100.00;98253.41;5109560;28;20317;-63
2023/08/02 02:25:51;;;;;;;3.15;2.70;;;;;;;21.88;100.00;98267.81;5109581;28;20586;-63
2023/08/02 02:28:19;;;;;;;4.20;2.70;;;;;;;21.89;100.00;98269.41;5109487;28;20209;-63
2023/08/02 02:30:47;;;;;;;3.05;2.45;;;;;;;21.91;100.00;98267.41;5109427;28;20208;-63
2023/08/02 02:33:14;;;;;;;4.28;3.17;;;;;;;21.93;100.00;98275.00;5109401;28;20194;-63
2023/08/02 02:35:41;;;;;;;3.58;2.80;;;;;;;21.91;100.00;98270.00;5109465;28;20210;-63
2023/08/02 02:38:07;;;;;;;3.80;2.95;;;;;;;21.93;100.00;98272.41;5109383;28;20644;-63
2023/08/02 02:40:34;;;;;;;3.43;2.87;;;;;;;21.95;100.00;98280.81;5109292;28;20205;-63
2023/08/02 02:43:01;;;;;;;4.03;3.10;;;;;;;21.96;100.00;98273.78;5109172;28;20205;-63
2023/08/02 02:45:28;;;;;;;5.87;2.83;;;;;;;21.92;100.00;98276.81;5109021;28;20714;-63
2023/08/02 02:47:56;;;;;;;3.38;2.80;;;;;;;21.87;100.00;98274.00;5109033;28;20200;-63
2023/08/02 02:50:23;;;;;;;5.00;3.27;;;;;;;21.82;100.00;98271.25;5109052;28;20194;-63
2023/08/02 02:52:50;;;;;;;3.55;2.80;;;;;;;21.82;100.00;98266.03;5109120;28;20197;-63
2023/08/02 02:55:17;;;;;;;3.92;3.10;;;;;;;21.74;100.00;98268.03;5108982;28;20193;-63
2023/08/02 02:57:44;;;;;;;3.80;2.80;;;;;;;21.73;100.00;98277.66;5109104;28;20216;-63
2023/08/02 03:00:12;;;;;;;3.47;2.72;;;;;;;21.72;100.00;98281.25;5109187;28;20208;-63
2023/08/02 03:02:38;;;;;;;3.78;2.80;;;;;;;21.71;100.00;98274.44;5109029;28;20689;-63
2023/08/02 03:05:07;;;;;;;2.88;2.60;;;;;;;21.65;100.00;98278.66;5108874;28;20748;-63
2023/08/02 03:07:34;;;;;;;5.47;3.30;;;;;;;21.64;100.00;98281.44;5108765;28;20205;-63
2023/08/02 03:10:01;;;;;;;6.15;2.90;;;;;;;21.65;100.00;98280.47;5108644;28;20205;-63
2023/08/02 03:12:28;;;;;;;4.47;3.05;;;;;;;21.64;100.00;98287.47;5108602;28;20296;-63
2023/08/02 03:14:55;;;;;;;3.70;2.70;;;;;;;21.65;100.00;98290.88;5108600;28;20231;-63
2023/08/02 03:17:21;;;;;;;3.65;2.90;;;;;;;21.54;100.00;98288.88;5108728;28;20789;-63
2023/08/02 03:19:48;;;;;;;3.83;3.08;;;;;;;21.53;100.00;98292.50;5108357;28;20201;-64
2023/08/02 03:22:17;;;;;;;5.47;3.17;;;;;;;21.39;100.00;98291.69;5108255;28;20263;-63
2023/08/02 03:24:43;;;;;;;4.00;2.90;;;;;;;21.41;100.00;98285.28;5108777;28;20232;-63
2023/08/02 03:27:10;;;;;;;3.90;2.90;;;;;;;21.23;100.00;98300.63;5108369;28;20717;-63
2023/08/02 03:29:37;;;;;;;4.77;3.20;;;;;;;21.32;100.00;98290.84;5108972;28;20251;-63
2023/08/02 03:32:04;;;;;;;4.63;3.20;;;;;;;21.36;100.00;98292.88;5108428;28;20699;-63
2023/08/02 03:34:31;;;;;;;5.57;3.13;;;;;;;21.40;100.00;98288.88;5108258;28;20225;-63
2023/08/02 03:36:58;;;;;;;4.50;3.20;;;;;;;21.37;100.00;98284.06;5108207;28;20205;-63
2023/08/02 03:39:27;;;;;;;6.77;3.00;;;;;;;21.35;100.00;98286.06;5108275;28;20716;-63
2023/08/02 03:41:54;;;;;;;4.33;2.93;;;;;;;21.35;100.00;98280.84;5108370;28;20292;-63
2023/08/02 03:44:21;;;;;;;4.43;2.93;;;;;;;21.39;100.00;98274.28;5107614;28;20249;-63
2023/08/02 03:46:48;;;;;;;3.90;3.00;;;;;;;21.36;100.00;98277.28;5107375;28;20195;-63
2023/08/02 03:49:15;;;;;;;4.07;3.00;;;;;;;21.39;100.00;98271.66;5108447;28;20200;-63
2023/08/02 03:51:42;;;;;;;4.70;3.43;;;;;;;21.42;100.00;98276.47;5108292;28;20209;-63
2023/08/02 03:54:09;;;;;;;4.90;3.40;;;;;;;21.51;100.00;98268.47;5108592;28;20209;-63
2023/08/02 03:56:37;;;;;;;5.00;3.07;;;;;;;21.56;100.00;98271.28;5108387;28;20200;-63
2023/08/02 03:59:04;;;;;;;3.87;3.10;;;;;;;21.64;100.00;98273.66;5108245;28;20201;-63
2023/08/02 04:01:31;;;;;;;7.78;3.15;;;;;;;21.67;100.00;98283.66;5108098;28;20736;-63
2023/08/02 04:03:58;;;;;;;4.97;3.20;;;;;;;21.78;100.00;98277.84;5107895;28;20200;-63
2023/08/02 04:06:25;;;;;;;4.50;3.20;;;;;;;21.81;100.00;98285.22;5108051;28;20204;-63
2023/08/02 04:08:52;;;;;;;3.55;2.88;;;;;;;21.93;100.00;98283.63;5107995;28;20197;-63
2023/08/02 04:11:18;;;;;;;4.30;3.00;;;;;;;21.99;100.00;98281.19;5108144;28;20201;-63
2023/08/02 04:13:47;;;;;;;5.15;3.20;;;;;;;22.10;100.00;98278.75;5108048;28;20211;-62
2023/08/02 04:16:13;;;;;;;3.67;3.05;;;;;;;22.13;100.00;98290.56;5107974;28;20587;-63
2023/08/02 04:18:41;;;;;;;4.43;3.35;;;;;;;22.20;100.00;98288.78;5107998;28;20221;-63
2023/08/02 04:21:08;;;;;;;4.60;3.60;;;;;;;22.20;100.00;98288.78;5107897;28;20274;-63
2023/08/02 04:23:35;;;;;;;3.90;3.20;;;;;;;22.26;100.00;98287.97;5108068;28;20202;-63
2023/08/02 04:26:09;;;;;;;4.43;3.35;;;;;;;22.31;100.00;98290.75;5107801;28;20237;-63
2023/08/02 04:28:36;;;;;;;4.95;3.35;;;;;;;22.35;100.00;98302.38;5108051;28;20197;-63
2023/08/02 04:31:04;;;;;;;3.92;3.10;;;;;;;22.38;100.00;98295.94;5108337;28;20585;-63
2023/08/02 04:33:31;;;;;;;5.03;3.67;;;;;;;22.44;100.00;98299.53;5110166;28;20206;-63
2023/08/02 04:35:59;;;;;;;8.73;6.10;;;;;;;22.48;100.00;98295.50;5111745;28;20197;-63
2023/08/02 04:38:26;;;;;;;10.15;6.32;;;;;;;22.54;100.00;98297.28;5111449;28;20194;-63
2023/08/02 04:40:53;;;;;;;5.72;4.18;;;;;;;22.58;100.00;98306.28;5111465;28;20208;-63
2023/08/02 04:43:20;;;;;;;6.15;4.13;;;;;;;22.66;100.00;98311.25;5111602;28;20292;-63
2023/08/02 04:45:47;;;;;;;6.18;4.57;;;;;;;22.72;100.00;98313.03;5111387;28;20236;-63
2023/08/02 04:48:15;;;;;;;4.85;3.75;;;;;;;22.78;100.00;98308.81;5111517;28;20208;-63
2023/08/02 04:50:43;;;;;;;9.43;3.33;;;;;;;22.88;100.00;98321.38;5111468;28;20200;-63
2023/08/02 04:53:10;;;;;;;5.03;3.80;;;;;;;23.00;100.00;98317.13;5111494;28;20223;-63
2023/08/02 04:55:43;;;;;;;5.13;3.63;;;;;;;23.09;99.27;98313.25;5111288;28;20193;-63
2023/08/02 04:58:10;;;;;;;5.05;3.70;;;;;;;23.25;99.37;98315.34;5111632;28;20198;-63
2023/08/02 05:00:37;;;;;;;4.70;3.58;;;;;;;23.31;97.10;98326.75;5111344;28;20197;-63
2023/08/02 05:03:04;;;;;;;5.65;3.80;;;;;;;23.47;98.98;98320.22;5111612;28;20724;-63
2023/08/02 05:05:33;;;;;;;6.18;3.70;;;;;;;23.63;97.60;98314.47;5111133;28;20230;-63
2023/08/02 05:08:00;;;;;;;11.55;3.88;;;;;;;23.76;96.28;98320.59;5110936;28;20220;-63
2023/08/02 05:10:27;;;;;;;6.13;3.88;;;;;;;23.91;94.92;98323.66;5111182;28;20193;-63
2023/08/02 05:12:54;;;;;;;4.97;3.63;;;;;;;24.08;94.43;98322.09;5110849;28;20197;-62
2023/08/02 05:15:21;;;;;;;4.15;3.58;;;;;;;24.22;94.72;98332.41;5110925;28;20250;-63
2023/08/02 05:17:48;;;;;;;6.32;3.65;;;;;;;24.44;93.01;98331.00;5111098;28;20193;-63
2023/08/02 05:20:15;;;;;;;4.80;3.50;;;;;;;24.68;91.19;98337.13;5110801;28;20666;-63
2023/08/02 05:22:43;;;;;;;5.32;3.88;;;;;;;24.82;90.97;98337.78;5110714;28;20582;-63
2023/08/02 05:25:10;;;;;;;6.15;3.78;;;;;;;24.78;90.24;98331.38;5111078;28;20229;-64
2023/08/02 05:27:37;;;;;;;6.57;3.97;;;;;;;24.89;88.72;98328.00;5110942;28;20266;-64
2023/08/02 05:30:05;;;;;;;4.72;3.30;;;;;;;24.99;88.04;98333.53;5110811;28;20201;-63
2023/08/02 05:32:32;;;;;;;4.63;3.75;;;;;;;25.11;90.54;98335.38;5110750;28;20201;-64
2023/08/02 05:34:59;;;;;;;5.50;3.80;;;;;;;25.19;92.26;98332.44;5110668;28;20193;-63
2023/08/02 05:37:28;;;;;;;6.40;4.15;;;;;;;25.20;91.88;98340.09;5110269;28;20197;-62
2023/08/02 05:39:56;;;;;;;4.72;3.80;;;;;;;25.24;91.41;98340.44;5110425;28;20224;-64
2023/08/02 05:42:23;;;;;;;5.10;3.70;;;;;;;25.25;89.97;98337.59;5110243;28;20201;-64
2023/08/02 05:44:49;;;;;;;4.78;3.65;;;;;;;25.26;89.32;98335.78;5110096;28;20713;-65
2023/08/02 05:47:16;;;;;;;6.15;4.63;;;;;;;25.26;89.60;98343.63;5110229;28;20200;-64
2023/08/02 05:49:43;;;;;;;6.20;4.32;;;;;;;25.23;87.68;98341.47;5110478;28;20217;-63
2023/08/02 05:52:10;;;;;;;6.05;4.40;;;;;;;25.20;89.64;98352.38;5110329;28;20202;-64
2023/08/02 05:54:37;;;;;;;6.45;4.25;;;;;;;25.12;90.47;98356.06;5110212;28;20204;-64
2023/08/02 05:57:06;;;;;;;4.88;3.72;;;;;;;25.11;91.04;98357.09;5109970;28;20201;-64
2023/08/02 05:59:33;;;;;;;5.28;3.83;;;;;;;25.14;91.97;98361.13;5110457;28;20214;-64
2023/08/02 06:02:00;;;;;;;4.88;4.05;;;;;;;25.13;92.42;98364.72;5109967;28;20197;-63
2023/08/02 06:04:27;;;;;;;5.30;3.67;;;;;;;25.12;93.05;98363.13;5110158;28;20204;-64
2023/08/02 06:06:54;;;;;;;5.25;4.07;;;;;;;24.96;88.43;98370.59;5110084;28;20197;-65
2023/08/02 06:09:21;;;;;;;6.22;4.07;;;;;;;25.00;88.97;98365.69;5110125;28;20197;-64
2023/08/02 06:11:48;;;;;;;4.97;3.90;;;;;;;25.01;89.53;98370.69;5109859;28;20206;-64
2023/08/02 06:14:16;;;;;;;5.22;3.80;;;;;;;24.95;90.06;98374.19;5109985;28;20202;-63
2023/08/02 06:16:43;;;;;;;6.45;4.40;;;;;;;24.87;89.84;98377.13;5109786;28;20299;-63
2023/08/02 06:19:10;;;;;;;9.57;5.53;;;;;;;24.81;88.55;98378.81;5109905;28;20275;-64
2023/08/02 06:21:37;;;;;;;9.35;5.63;;;;;;;24.89;88.34;98375.09;5109758;28;20201;-63
2023/08/02 06:24:04;;;;;;;8.73;5.10;;;;;;;25.04;89.11;98369.47;5109727;28;20212;-63
2023/08/02 06:26:31;;;;;;;5.40;4.20;;;;;;;25.14;90.93;98366.34;5109406;28;20756;-64
2023/08/02 06:28:58;;;;;;;6.30;4.32;;;;;;;25.00;89.74;98373.53;5109478;28;20205;-64
2023/08/02 06:31:26;;;;;;;7.97;5.03;;;;;;;24.97;91.00;98385.25;5109487;28;20198;-65
2023/08/02 06:33:53;;;;;;;6.05;4.30;;;;;;;25.04;91.23;98378.09;5109231;28;20224;-64
2023/08/02 06:36:20;;;;;;;5.85;3.60;;;;;;;25.10;89.99;98378.25;5109275;28;20202;-65
2023/08/02 06:38:47;;;;;;;5.10;3.75;;;;;;;25.13;88.71;98375.97;5109493;28;20678;-66
2023/08/02 06:41:14;;;;;;;5.55;3.42;;;;;;;25.18;88.54;98377.97;5109287;28;20915;-63
2023/08/02 06:43:41;;;;;;;7.38;3.40;;;;;;;25.18;87.35;98383.19;5109469;28;20205;-63
2023/08/02 06:46:08;;;;;;;4.70;3.50;;;;;;;25.23;85.87;98375.47;5109974;28;20251;-60
2023/08/02 06:48:36;;;;;;;11.45;7.68;;;;;;;25.22;87.49;98384.31;5109531;28;20204;-63
2023/08/02 06:51:03;;;;;;;53.25;28.83;;;;;;;25.26;87.05;98385.50;5109061;28;20209;-62
2023/08/02 06:53:30;;;;;;;16.30;9.93;;;;;;;25.39;87.42;98387.91;5109101;28;20198;-61
2023/08/02 06:55:58;;;;;;;10.98;7.50;;;;;;;25.51;87.39;98399.22;5108002;27;20197;-63
2023/08/02 06:58:25;;;;;;;6.20;4.40;;;;;;;25.72;89.90;98395.28;5109238;28;20200;-64
2023/08/02 07:00:52;;;;;;;5.45;3.85;;;;;;;25.70;89.63;98402.56;5108956;28;20201;-63
2023/08/02 07:03:21;;;;;;;7.20;4.30;;;;;;;25.74;85.50;98403.72;5108769;28;20193;-62
2023/08/02 07:05:50;;;;;;;5.85;4.20;;;;;;;26.13;89.40;98405.94;5108887;28;20301;-63
2023/08/02 07:08:16;;;;;;;5.47;4.03;;;;;;;26.26;87.45;98402.25;5108691;28;20283;-62
2023/08/02 07:10:43;;;;;;;6.72;4.05;;;;;;;26.51;88.22;98407.28;5108570;28;20205;-62
2023/08/02 07:13:10;;;;;;;29.60;17.98;;;;;;;26.80;90.44;98401.06;5108607;28;20682;-63
2023/08/02 07:15:37;;;;;;;89.78;48.92;;;;;;;26.84;81.46;98411.88;5108598;28;20198;-64
2023/08/02 07:18:04;;;;;;;6.30;4.93;;;;;;;26.98;80.49;98407.16;5108510;28;20391;-63
2023/08/02 07:20:31;;;;;;;5.10;3.97;;;;;;;27.31;89.14;98404.66;5108576;28;20208;-63
2023/08/02 07:22:59;;;;;;;5.43;3.95;;;;;;;27.65;86.05;98407.31;5108625;27;20202;-63
2023/08/02 07:25:26;;;;;;;4.50;3.65;;;;;;;27.85;81.79;98404.25;5108275;28;20239;-63
2023/08/02 07:27:53;;;;;;;5.68;4.07;;;;;;;28.00;78.09;98403.66;5108609;28;20200;-63
2023/08/02 07:30:20;;;;;;;5.07;3.85;;;;;;;28.18;81.16;98402.59;5108916;28;20288;-63
2023/08/02 07:32:47;;;;;;;6.57;3.95;;;;;;;28.25;83.95;98407.72;5108271;28;20201;-64
2023/08/02 07:35:14;;;;;;;5.40;3.92;;;;;;;28.47;77.04;98408.53;5108620;28;20215;-63
2023/08/02 07:37:41;;;;;;;5.53;3.85;;;;;;;28.77;80.13;98407.31;5108240;28;20383;-63
2023/08/02 07:40:10;;;;;;;4.82;3.70;;;;;;;28.82;72.87;98415.28;5108490;28;20194;-63
2023/08/02 07:42:37;;;;;;;5.90;4.07;;;;;;;29.03;78.70;98411.06;5108305;28;20236;-63
2023/08/02 07:45:08;;;;;;;6.47;3.92;;;;;;;29.22;75.57;98419.41;5108067;28;20231;-63
2023/08/02 07:47:35;;;;;;;5.80;4.28;;;;;;;29.48;76.22;98417.81;5107257;28;20205;-63
2023/08/02 07:50:03;;;;;;;6.05;4.00;;;;;;;29.60;71.33;98428.19;5107820;28;20205;-63
2023/08/02 07:52:30;;;;;;;6.38;3.95;;;;;;;29.53;66.90;98420.50;5108497;28;20482;-63
2023/08/02 07:54:57;;;;;;;4.78;3.78;;;;;;;29.55;67.20;98428.94;5107962;28;20198;-64
2023/08/02 07:57:28;;;;;;;11.27;6.40;;;;;;;29.55;65.19;98435.03;5107900;28;20604;-64
2023/08/02 07:59:55;;;;;;;5.93;4.10;;;;;;;29.85;68.10;98438.97;5108141;28;20189;-64
2023/08/02 08:02:21;;;;;;;7.13;4.47;;;;;;;29.85;62.28;98441.59;5108322;28;20193;-64
2023/08/02 08:04:48;;;;;;;6.97;4.60;;;;;;;29.81;64.83;98445.78;5107994;28;20749;-64
2023/08/02 08:07:15;;;;;;;6.82;4.70;;;;;;;30.00;64.25;98452.25;5109779;28;20233;-64
2023/08/02 08:09:42;;;;;;;6.32;4.63;;;;;;;30.37;73.77;98446.19;5112200;28;20674;-64
2023/08/02 08:12:11;;;;;;;7.75;4.25;;;;;;;30.75;76.72;98449.53;5112300;28;20189;-64
2023/08/02 08:14:39;;;;;;;5.60;3.55;;;;;;;30.84;64.16;98458.59;5112286;28;20220;-66
2023/08/02 08:17:06;;;;;;;4.68;3.72;;;;;;;30.74;61.73;98461.13;5112081;28;20689;-64
2023/08/02 08:19:34;;;;;;;5.50;3.90;;;;;;;30.96;60.04;98473.41;5111994;28;20193;-64
2023/08/02 08:22:01;;;;;;;4.63;3.90;;;;;;;31.08;58.45;98455.47;5112146;28;20228;-64
2023/08/02 08:24:28;;;;;;;5.85;3.97;;;;;;;31.21;58.74;98452.34;5111849;28;20204;-64
2023/08/02 08:26:56;;;;;;;6.75;3.63;;;;;;;31.33;58.06;98466.13;5111625;28;20233;-64
2023/08/02 08:29:22;;;;;;;6.07;3.97;;;;;;;31.43;56.40;98456.66;5111952;28;20202;-64
2023/08/02 08:31:51;;;;;;;5.82;4.03;;;;;;;31.39;56.22;98459.03;5112187;27;20198;-64
2023/08/02 08:34:17;;;;;;;5.53;4.10;;;;;;;31.50;57.98;98468.53;5111689;28;20638;-64
2023/08/02 08:36:44;;;;;;;4.40;3.50;;;;;;;31.67;62.02;98463.00;5111668;28;20205;-63
2023/08/02 08:39:11;;;;;;;4.57;3.90;;;;;;;31.92;60.48;98456.16;5111614;28;20198;-64
2023/08/02 08:41:38;;;;;;;4.78;3.63;;;;;;;31.71;52.45;98468.56;5111751;28;20201;-64
2023/08/02 08:44:05;;;;;;;6.22;3.78;;;;;;;31.77;53.23;98463.00;5111532;28;20216;-64
2023/08/02 08:46:33;;;;;;;4.82;3.63;;;;;;;32.12;57.63;98464.06;5111414;28;20241;-64
2023/08/02 08:49:03;;;;;;;4.90;3.60;;;;;;;32.12;52.06;98466.72;5111459;28;20225;-64
2023/08/02 08:51:34;;;;;;;6.18;4.30;;;;;;;32.06;56.04;98470.44;5111450;28;20701;-64
2023/08/02 08:54:06;;;;;;;4.45;3.85;;;;;;;32.05;54.73;98468.84;5111733;28;20194;-64
2023/08/02 08:56:36;;;;;;;5.32;3.80;;;;;;;32.27;55.90;98470.41;5111202;28;20255;-64
2023/08/02 08:59:05;;;;;;;4.93;4.15;;;;;;;32.29;62.07;98457.69;5111487;28;20197;-64
2023/08/02 09:01:32;;;;;;;3.97;3.58;;;;;;;32.21;51.44;98470.41;5111531;28;20205;-64
2023/08/02 09:04:01;;;;;;;4.68;3.85;;;;;;;32.39;52.94;98468.25;5111054;28;20201;-64
2023/08/02 09:06:28;;;;;;;6.35;4.10;;;;;;;32.61;51.47;98470.59;5111056;28;20235;-64
2023/08/02 09:08:55;;;;;;;3.95;3.40;;;;;;;32.62;51.61;98462.38;5111326;28;20197;-64
2023/08/02 09:11:22;;;;;;;4.70;3.85;;;;;;;32.92;51.29;98477.34;5111188;28;20194;-64
2023/08/02 09:13:49;;;;;;;4.57;3.70;;;;;;;33.20;55.81;98467.19;5110932;28;20204;-64
2023/08/02 09:16:16;;;;;;;4.75;3.17;;;;;;;33.26;50.73;98467.94;5110887;28;20205;-64
2023/08/02 09:18:45;;;;;;;5.13;3.63;;;;;;;33.25;48.29;98469.00;5110260;28;20284;-64
2023/08/02 09:21:15;;;;;;;3.72;3.13;;;;;;;33.09;46.20;98481.56;5110880;28;20686;-64
2023/08/02 09:23:46;;;;;;;3.67;3.00;;;;;;;33.27;47.42;98488.06;5111006;28;20201;-64
2023/08/02 09:26:15;;;;;;;3.72;3.20;;;;;;;33.27;49.71;98469.53;5110779;28;20233;-64
2023/08/02 09:28:58;;;;;;;5.18;3.60;;;;;;;33.40;46.10;98481.38;5110960;28;20685;-64
2023/08/02 09:31:27;;;;;;;4.85;3.33;;;;;;;33.52;45.85;98480.00;5110679;28;20677;-64
2023/08/02 09:33:55;;;;;;;4.47;3.58;;;;;;;33.38;49.05;98479.00;5111033;28;20218;-64
2023/08/02 09:36:25;;;;;;;5.60;3.78;;;;;;;33.28;46.99;98489.63;5110343;28;20193;-64
2023/08/02 09:38:57;;;;;;;4.70;3.65;;;;;;;33.27;51.10;98482.78;5110366;28;20200;-64
2023/08/02 09:41:25;;;;;;;4.20;3.47;;;;;;;33.24;47.91;98493.91;5110450;28;20198;-64
2023/08/02 09:43:52;;;;;;;4.63;3.80;;;;;;;33.22;52.01;98496.03;5110256;28;20223;-64
2023/08/02 09:46:30;;;;;;;5.30;4.10;;;;;;;33.26;50.95;98502.41;5110202;28;20236;-64
2023/08/02 09:48:57;;;;;;;5.40;4.00;;;;;;;33.21;46.55;98500.56;5110472;28;20205;-64
2023/08/02 09:51:39;;;;;;;5.30;3.60;;;;;;;33.13;48.41;98503.78;5110248;28;20193;-64
2023/08/02 09:54:06;;;;;;;5.03;3.65;;;;;;;33.09;49.29;98498.22;5110557;28;20201;-64
2023/08/02 09:56:35;;;;;;;4.45;3.40;;;;;;;33.18;47.15;98500.31;5110206;28;20193;-64
2023/08/02 09:59:03;;;;;;;5.03;3.70;;;;;;;33.12;46.67;98508.28;5110160;28;20676;-64
2023/08/02 10:01:31;;;;;;;6.18;3.47;;;;;;;33.06;46.79;98506.72;5110086;28;20209;-64
2023/08/02 10:04:00;;;;;;;3.40;3.10;;;;;;;32.89;44.86;98512.31;5110162;28;20224;-64
2023/08/02 10:06:32;;;;;;;4.88;3.55;;;;;;;33.10;45.55;98513.06;5109787;28;20593;-64
2023/08/02 10:09:04;;;;;;;3.95;3.28;;;;;;;33.27;45.79;98503.97;5109958;28;20208;-64
2023/08/02 10:11:34;;;;;;;4.93;3.75;;;;;;;33.24;46.06;98505.31;5109923;28;20233;-64
2023/08/02 10:14:03;;;;;;;4.50;3.60;;;;;;;33.09;45.71;98503.53;5109837;27;20671;-64
2023/08/02 10:16:30;;;;;;;5.22;4.10;;;;;;;33.13;45.61;98494.00;5109801;28;20208;-64
2023/08/02 10:18:58;;;;;;;5.05;3.90;;;;;;;33.25;47.37;98490.19;5109644;28;20213;-64
2023/08/02 10:21:25;;;;;;;4.32;3.70;;;;;;;33.50;46.77;98489.25;5109812;28;20662;-64
2023/08/02 10:23:52;;;;;;;4.50;3.65;;;;;;;33.47;47.34;98492.47;5109556;28;20236;-64
2023/08/02 10:26:21;;;;;;;4.78;3.90;;;;;;;33.47;48.01;98498.53;5109426;28;20236;-64
2023/08/02 10:28:49;;;;;;;4.70;3.72;;;;;;;33.73;48.17;98496.53;5109579;28;20209;-64
2023/08/02 10:31:16;;;;;;;5.38;3.70;;;;;;;33.83;47.38;98495.66;5109751;28;20209;-64
2023/08/02 10:33:43;;;;;;;6.35;3.97;;;;;;;33.78;46.97;98508.97;5109893;28;20194;-64
2023/08/02 10:36:10;;;;;;;7.00;4.22;;;;;;;34.00;47.44;98496.03;5109687;28;20412;-64
2023/08/02 10:38:54;;;;;;;5.78;4.57;;;;;;;34.25;45.97;98507.53;5109315;28;20208;-64
2023/08/02 10:41:25;;;;;;;5.28;4.38;;;;;;;34.32;45.82;98505.34;5107932;28;20209;-64
2023/08/02 10:44:12;;;;;;;4.72;3.95;;;;;;;34.39;46.61;98503.16;5109465;28;20205;-64
2023/08/02 10:46:39;;;;;;;4.60;4.10;;;;;;;34.33;47.11;98498.97;5109269;28;20313;-64
2023/08/02 10:49:38;;;;;;;5.75;4.57;;;;;;;34.52;45.00;98501.69;5109218;28;20209;-64
2023/08/02 10:52:27;;;;;;;5.22;4.63;;;;;;;34.48;47.99;98501.47;5045934;28;20204;-64
2023/08/02 10:55:05;;;;;;;4.70;4.20;;;;;;;34.30;45.46;98507.50;5104523;28;20208;-64
2023/08/02 10:57:33;;;;;;;4.60;4.10;;;;;;;34.26;46.62;98499.28;5109076;28;20204;-64
2023/08/02 11:00:00;;;;;;;5.43;4.30;;;;;;;34.38;47.83;98504.19;5109057;28;20205;-64
2023/08/02 11:02:44;;;;;;;6.93;4.55;;;;;;;34.38;47.55;98493.59;5109077;28;20205;-64
2023/08/02 11:05:10;;;;;;;5.32;4.50;;;;;;;34.33;49.14;98496.31;5109146;28;20194;-64
2023/08/02 11:07:37;;;;;;;7.15;5.07;;;;;;;34.14;44.69;98503.41;5108758;28;20229;-64
2023/08/02 11:10:06;;;;;;;6.22;5.10;;;;;;;34.08;46.62;98501.88;5108910;27;20201;-64
2023/08/02 11:12:36;;;;;;;6.53;4.90;;;;;;;34.10;50.26;98499.72;5108810;28;20710;-64
2023/08/02 11:15:15;;;;;;;7.78;4.68;;;;;;;34.18;45.79;98509.72;5108822;28;20198;-64
2023/08/02 11:17:41;;;;;;;6.70;4.70;;;;;;;33.79;45.92;98505.25;5108737;28;20250;-64
2023/08/02 11:20:09;;;;;;;6.40;4.53;;;;;;;33.96;46.83;98505.63;5108737;28;20201;-64
2023/08/02 11:22:37;;;;;;;7.25;5.20;;;;;;;34.19;48.65;98498.84;5108707;28;20367;-64
2023/08/02 11:25:06;;;;;;;5.25;4.68;;;;;;;34.29;47.27;98497.94;5108935;28;20209;-65
2023/08/02 11:27:34;;;;;;;6.55;5.05;;;;;;;34.55;46.55;98495.84;5108555;28;20320;-64
2023/08/02 11:30:03;;;;;;;7.30;5.20;;;;;;;34.53;48.43;98502.47;5108415;28;20231;-64
2023/08/02 11:32:32;;;;;;;6.97;5.15;;;;;;;34.38;47.09;98500.75;5108579;28;20202;-64
2023/08/02 11:34:59;;;;;;;5.95;5.10;;;;;;;34.00;47.66;98501.34;5108229;28;20209;-64